sensor_id;sensor_type;location;lat;lon;timestamp;pressure;altitude;pressure_sealevel;temperature;humidity
34185;BME280;20454;48.100;11.776;2022-10-17T00:01:57;96041.75;;;12.23;100.00
34185;BME280;20454;48.100;11.776;2022-10-17T00:04:22;96050.13;;;12.23;100.00
34185;BME280;20454;48.100;11.776;2022-10-17T00:06:48;96048.47;;;12.22;100.00
34185;BME280;20454;48.100;11.776;2022-10-17T00:09:14;96046.94;;;12.16;100.00
34185;BME280;20454;48.100;11.776;2022-10-17T00:11:39;96058.94;;;12.17;100.00
34185;BME280;20454;48.100;11.776;2022-10-17T00:14:05;96048.41;;;12.14;100.00
34185;BME280;20454;48.100;11.776;2022-10-17T00:16:34;96044.44;;;12.06;100.00
34185;BME280;20454;48.100;11.776;2022-10-17T00:19:05;96059.19;;;12.07;100.00
34185;BME280;20454;48.100;11.776;2022-10-17T00:21:32;96064.28;;;12.05;100.00
34185;BME280;20454;48.100;11.776;2022-10-17T00:23:59;96065.72;;;12.02;100.00
34185;BME280;20454;48.100;11.776;2022-10-17T00:26:26;96065.03;;;11.97;100.00
34185;BME280;20454;48.100;11.776;2022-10-17T00:28:54;96068.13;;;11.95;100.00
34185;BME280;20454;48.100;11.776;2022-10-17T00:31:21;96072.69;;;11.91;100.00
34185;BME280;20454;48.100;11.776;2022-10-17T00:33:47;96059.50;;;11.83;100.00
34185;BME280;20454;48.100;11.776;2022-10-17T00:36:25;96067.06;;;11.83;100.00
34185;BME280;20454;48.100;11.776;2022-10-17T00:38:57;96068.81;;;11.79;100.00
34185;BME280;20454;48.100;11.776;2022-10-17T00:41:30;96065.34;;;11.73;100.00
34185;BME280;20454;48.100;11.776;2022-10-17T00:46:49;96067.75;;;11.66;100.00
34185;BME280;20454;48.100;11.776;2022-10-17T00:49:15;96067.88;;;11.61;100.00
34185;BME280;20454;48.100;11.776;2022-10-17T00:51:44;96069.00;;;11.60;100.00
34185;BME280;20454;48.100;11.776;2022-10-17T00:54:14;96064.56;;;11.59;100.00
34185;BME280;20454;48.100;11.776;2022-10-17T00:56:41;96068.50;;;11.58;100.00
34185;BME280;20454;48.100;11.776;2022-10-17T00:59:08;96064.00;;;11.57;100.00
34185;BME280;20454;48.100;11.776;2022-10-17T01:01:35;96061.03;;;11.54;100.00
34185;BME280;20454;48.100;11.776;2022-10-17T01:04:01;96070.72;;;11.56;100.00
34185;BME280;20454;48.100;11.776;2022-10-17T01:06:27;96074.34;;;11.57;100.00
34185;BME280;20454;48.100;11.776;2022-10-17T01:08:53;96072.50;;;11.52;100.00
34185;BME280;20454;48.100;11.776;2022-10-17T01:11:44;96086.94;;;11.54;100.00
34185;BME280;20454;48.100;11.776;2022-10-17T01:17:09;96070.13;;;11.46;100.00
34185;BME280;20454;48.100;11.776;2022-10-17T01:20:34;96069.94;;;11.42;100.00
34185;BME280;20454;48.100;11.776;2022-10-17T01:29:56;96070.19;;;11.32;100.00
34185;BME280;20454;48.100;11.776;2022-10-17T01:35:28;96075.38;;;11.25;100.00
34185;BME280;20454;48.100;11.776;2022-10-17T01:38:08;96078.44;;;11.24;100.00
34185;BME280;20454;48.100;11.776;2022-10-17T01:43:46;96067.94;;;11.21;100.00
34185;BME280;20454;48.100;11.776;2022-10-17T01:46:25;96063.53;;;11.20;100.00
34185;BME280;20454;48.100;11.776;2022-10-17T01:48:53;96064.31;;;11.20;100.00
34185;BME280;20454;48.100;11.776;2022-10-17T01:51:38;96059.91;;;11.19;100.00
34185;BME280;20454;48.100;11.776;2022-10-17T01:54:34;96062.69;;;11.19;100.00
34185;BME280;20454;48.100;11.776;2022-10-17T01:57:05;96054.63;;;11.18;100.00
34185;BME280;20454;48.100;11.776;2022-10-17T01:59:43;96062.47;;;11.16;100.00
34185;BME280;20454;48.100;11.776;2022-10-17T02:02:13;96059.19;;;11.14;100.00
34185;BME280;20454;48.100;11.776;2022-10-17T02:04:41;96056.22;;;11.10;100.00
34185;BME280;20454;48.100;11.776;2022-10-17T02:07:09;96060.13;;;11.09;100.00
34185;BME280;20454;48.100;11.776;2022-10-17T02:09:36;96055.69;;;11.08;100.00
34185;BME280;20454;48.100;11.776;2022-10-17T02:24:53;96067.66;;;11.09;100.00
34185;BME280;20454;48.100;11.776;2022-10-17T02:27:50;96059.09;;;11.05;100.00
34185;BME280;20454;48.100;11.776;2022-10-17T02:33:38;96056.22;;;10.97;100.00
34185;BME280;20454;48.100;11.776;2022-10-17T02:36:18;96061.28;;;10.95;100.00
34185;BME280;20454;48.100;11.776;2022-10-17T02:38:45;96058.59;;;10.90;100.00
34185;BME280;20454;48.100;11.776;2022-10-17T02:41:16;96066.13;;;10.89;100.00
34185;BME280;20454;48.100;11.776;2022-10-17T02:43:43;96072.50;;;10.90;100.00
34185;BME280;20454;48.100;11.776;2022-10-17T02:46:13;96072.00;;;10.88;100.00
34185;BME280;20454;48.100;11.776;2022-10-17T02:49:01;96071.81;;;10.84;100.00
34185;BME280;20454;48.100;11.776;2022-10-17T02:51:45;96067.47;;;10.78;100.00
34185;BME280;20454;48.100;11.776;2022-10-17T02:56:57;96063.44;;;10.71;100.00
34185;BME280;20454;48.100;11.776;2022-10-17T02:59:25;96071.28;;;10.69;100.00
34185;BME280;20454;48.100;11.776;2022-10-17T03:01:54;96059.13;;;10.65;100.00
34185;BME280;20454;48.100;11.776;2022-10-17T03:04:19;96069.13;;;10.66;100.00
34185;BME280;20454;48.100;11.776;2022-10-17T03:06:47;96065.59;;;10.60;100.00
34185;BME280;20454;48.100;11.776;2022-10-17T03:09:14;96069.00;;;10.57;100.00
34185;BME280;20454;48.100;11.776;2022-10-17T03:11:40;96071.28;;;10.55;100.00
34185;BME280;20454;48.100;11.776;2022-10-17T03:14:06;96073.53;;;10.53;100.00
34185;BME280;20454;48.100;11.776;2022-10-17T03:16:32;96065.72;;;10.55;100.00
34185;BME280;20454;48.100;11.776;2022-10-17T03:18:57;96072.72;;;10.53;100.00
34185;BME280;20454;48.100;11.776;2022-10-17T03:21:23;96061.09;;;10.51;100.00
34185;BME280;20454;48.100;11.776;2022-10-17T03:23:49;96066.94;;;10.49;100.00
34185;BME280;20454;48.100;11.776;2022-10-17T03:26:15;96069.00;;;10.44;100.00
34185;BME280;20454;48.100;11.776;2022-10-17T03:28:40;96070.44;;;10.41;100.00
34185;BME280;20454;48.100;11.776;2022-10-17T03:31:13;96067.34;;;10.43;100.00
34185;BME280;20454;48.100;11.776;2022-10-17T03:33:39;96076.31;;;10.40;100.00
34185;BME280;20454;48.100;11.776;2022-10-17T03:36:15;96073.53;;;10.40;100.00
34185;BME280;20454;48.100;11.776;2022-10-17T03:38:43;96069.69;;;10.36;100.00
34185;BME280;20454;48.100;11.776;2022-10-17T03:41:09;96083.53;;;10.41;100.00
34185;BME280;20454;48.100;11.776;2022-10-17T03:43:35;96077.66;;;10.42;100.00
34185;BME280;20454;48.100;11.776;2022-10-17T03:46:01;96077.16;;;10.40;100.00
34185;BME280;20454;48.100;11.776;2022-10-17T03:48:29;96086.59;;;10.39;100.00
34185;BME280;20454;48.100;11.776;2022-10-17T03:51:02;96083.00;;;10.39;100.00
34185;BME280;20454;48.100;11.776;2022-10-17T03:53:28;96086.38;;;10.36;100.00
34185;BME280;20454;48.100;11.776;2022-10-17T03:55:54;96086.72;;;10.34;100.00
34185;BME280;20454;48.100;11.776;2022-10-17T03:58:19;96088.38;;;10.35;100.00
34185;BME280;20454;48.100;11.776;2022-10-17T04:55:10;96118.66;;;9.86;100.00
34185;BME280;20454;48.100;11.776;2022-10-17T04:57:36;96122.25;;;9.87;100.00
34185;BME280;20454;48.100;11.776;2022-10-17T05:00:03;96124.00;;;9.83;100.00
34185;BME280;20454;48.100;11.776;2022-10-17T05:02:28;96118.75;;;9.81;100.00
34185;BME280;20454;48.100;11.776;2022-10-17T05:04:54;96115.44;;;9.79;100.00
34185;BME280;20454;48.100;11.776;2022-10-17T05:07:20;96115.53;;;9.74;100.00
34185;BME280;20454;48.100;11.776;2022-10-17T05:09:46;96131.06;;;9.75;100.00
34185;BME280;20454;48.100;11.776;2022-10-17T05:12:11;96126.34;;;9.76;100.00
34185;BME280;20454;48.100;11.776;2022-10-17T05:14:37;96132.47;;;9.73;100.00
34185;BME280;20454;48.100;11.776;2022-10-17T05:17:03;96132.81;;;9.71;100.00
34185;BME280;20454;48.100;11.776;2022-10-17T05:19:28;96137.81;;;9.69;100.00
34185;BME280;20454;48.100;11.776;2022-10-17T05:21:54;96136.47;;;9.67;100.00
34185;BME280;20454;48.100;11.776;2022-10-17T05:24:20;96141.72;;;9.68;100.00
34185;BME280;20454;48.100;11.776;2022-10-17T05:26:48;96129.03;;;9.62;100.00
34185;BME280;20454;48.100;11.776;2022-10-17T05:29:14;96144.50;;;9.68;100.00
34185;BME280;20454;48.100;11.776;2022-10-17T05:31:40;96145.63;;;9.67;100.00
34185;BME280;20454;48.100;11.776;2022-10-17T05:34:05;96149.53;;;9.66;100.00
34185;BME280;20454;48.100;11.776;2022-10-17T05:36:31;96157.03;;;9.66;100.00
34185;BME280;20454;48.100;11.776;2022-10-17T05:38:57;96150.44;;;9.62;100.00
34185;BME280;20454;48.100;11.776;2022-10-17T05:41:22;96147.97;;;9.60;100.00
34185;BME280;20454;48.100;11.776;2022-10-17T05:43:48;96163.50;;;9.61;100.00
34185;BME280;20454;48.100;11.776;2022-10-17T05:46:15;96161.56;;;9.62;100.00
34185;BME280;20454;48.100;11.776;2022-10-17T05:48:41;96161.00;;;9.60;100.00
34185;BME280;20454;48.100;11.776;2022-10-17T05:51:08;96162.69;;;9.61;100.00
34185;BME280;20454;48.100;11.776;2022-10-17T05:53:38;96160.22;;;9.59;100.00
34185;BME280;20454;48.100;11.776;2022-10-17T05:56:08;96164.91;;;9.59;100.00
34185;BME280;20454;48.100;11.776;2022-10-17T05:58:34;96163.66;;;9.52;100.00
34185;BME280;20454;48.100;11.776;2022-10-17T06:01:03;96174.09;;;9.59;100.00
34185;BME280;20454;48.100;11.776;2022-10-17T06:03:29;96177.38;;;9.61;100.00
34185;BME280;20454;48.100;11.776;2022-10-17T06:05:55;96174.91;;;9.60;100.00
34185;BME280;20454;48.100;11.776;2022-10-17T06:08:21;96180.16;;;9.61;100.00
34185;BME280;20454;48.100;11.776;2022-10-17T06:10:49;96178.22;;;9.62;100.00
34185;BME280;20454;48.100;11.776;2022-10-17T06:13:18;96182.44;;;9.59;100.00
34185;BME280;20454;48.100;11.776;2022-10-17T06:15:44;96186.78;;;9.65;100.00
34185;BME280;20454;48.100;11.776;2022-10-17T06:18:10;96175.75;;;9.60;100.00
34185;BME280;20454;48.100;11.776;2022-10-17T06:20:36;96182.38;;;9.64;100.00
34185;BME280;20454;48.100;11.776;2022-10-17T06:23:02;96183.63;;;9.72;100.00
34185;BME280;20454;48.100;11.776;2022-10-17T06:25:31;96195.25;;;9.74;100.00
34185;BME280;20454;48.100;11.776;2022-10-17T06:27:56;96192.81;;;9.72;100.00
34185;BME280;20454;48.100;11.776;2022-10-17T06:30:22;96193.31;;;9.74;100.00
34185;BME280;20454;48.100;11.776;2022-10-17T06:32:48;96195.81;;;9.76;100.00
34185;BME280;20454;48.100;11.776;2022-10-17T06:35:14;96197.69;;;9.80;100.00
34185;BME280;20454;48.100;11.776;2022-10-17T06:37:39;96195.41;;;9.82;100.00
34185;BME280;20454;48.100;11.776;2022-10-17T06:40:06;96191.50;;;9.83;100.00
34185;BME280;20454;48.100;11.776;2022-10-17T06:42:33;96203.63;;;9.92;100.00
34185;BME280;20454;48.100;11.776;2022-10-17T06:44:59;96206.91;;;9.94;100.00
34185;BME280;20454;48.100;11.776;2022-10-17T06:47:25;96193.59;;;9.91;100.00
34185;BME280;20454;48.100;11.776;2022-10-17T06:49:50;96210.94;;;10.02;100.00
34185;BME280;20454;48.100;11.776;2022-10-17T06:52:16;96203.19;;;10.04;100.00
34185;BME280;20454;48.100;11.776;2022-10-17T06:54:43;96204.66;;;10.15;100.00
34185;BME280;20454;48.100;11.776;2022-10-17T06:57:09;96216.22;;;10.22;100.00
34185;BME280;20454;48.100;11.776;2022-10-17T06:59:35;96206.16;;;10.26;100.00
34185;BME280;20454;48.100;11.776;2022-10-17T07:02:01;96212.69;;;10.35;100.00
34185;BME280;20454;48.100;11.776;2022-10-17T07:04:27;96214.47;;;10.44;100.00
34185;BME280;20454;48.100;11.776;2022-10-17T07:06:53;96226.25;;;10.55;100.00
34185;BME280;20454;48.100;11.776;2022-10-17T07:09:19;96221.03;;;10.67;100.00
34185;BME280;20454;48.100;11.776;2022-10-17T07:11:45;96222.28;;;10.74;100.00
34185;BME280;20454;48.100;11.776;2022-10-17T07:14:11;96219.84;;;10.86;100.00
34185;BME280;20454;48.100;11.776;2022-10-17T07:16:37;96222.13;;;10.98;100.00
34185;BME280;20454;48.100;11.776;2022-10-17T07:19:02;96228.88;;;11.10;100.00
34185;BME280;20454;48.100;11.776;2022-10-17T07:21:28;96231.94;;;11.22;100.00
34185;BME280;20454;48.100;11.776;2022-10-17T07:23:54;96231.03;;;11.40;100.00
34185;BME280;20454;48.100;11.776;2022-10-17T07:26:20;96237.44;;;11.54;100.00
34185;BME280;20454;48.100;11.776;2022-10-17T07:28:50;96235.50;;;11.68;100.00
34185;BME280;20454;48.100;11.776;2022-10-17T07:31:18;96234.66;;;11.81;100.00
34185;BME280;20454;48.100;11.776;2022-10-17T07:33:44;96240.72;;;11.97;100.00
34185;BME280;20454;48.100;11.776;2022-10-17T07:36:11;96242.13;;;12.08;100.00
34185;BME280;20454;48.100;11.776;2022-10-17T07:38:38;96235.38;;;12.22;100.00
34185;BME280;20454;48.100;11.776;2022-10-17T07:41:07;96240.91;;;12.36;100.00
34185;BME280;20454;48.100;11.776;2022-10-17T07:43:34;96241.19;;;12.48;100.00
34185;BME280;20454;48.100;11.776;2022-10-17T07:46:02;96245.88;;;12.61;100.00
34185;BME280;20454;48.100;11.776;2022-10-17T07:48:29;96245.00;;;12.74;100.00
34185;BME280;20454;48.100;11.776;2022-10-17T07:50:55;96244.91;;;12.87;100.00
34185;BME280;20454;48.100;11.776;2022-10-17T07:53:21;96242.91;;;13.01;100.00
34185;BME280;20454;48.100;11.776;2022-10-17T07:55:47;96251.41;;;13.18;99.52
34185;BME280;20454;48.100;11.776;2022-10-17T07:58:14;96248.50;;;13.32;98.00
34185;BME280;20454;48.100;11.776;2022-10-17T08:00:40;96252.84;;;13.46;97.23
34185;BME280;20454;48.100;11.776;2022-10-17T08:03:06;96251.28;;;13.62;96.15
34185;BME280;20454;48.100;11.776;2022-10-17T08:05:33;96251.97;;;13.76;96.19
34185;BME280;20454;48.100;11.776;2022-10-17T08:07:59;96243.13;;;13.91;93.98
34185;BME280;20454;48.100;11.776;2022-10-17T08:10:25;96253.22;;;14.09;93.04
34185;BME280;20454;48.100;11.776;2022-10-17T08:12:57;96252.97;;;14.28;89.39
34185;BME280;20454;48.100;11.776;2022-10-17T08:15:24;96257.75;;;14.44;88.44
34185;BME280;20454;48.100;11.776;2022-10-17T08:17:51;96247.22;;;14.58;87.04
34185;BME280;20454;48.100;11.776;2022-10-17T08:20:17;96258.56;;;14.78;87.04
34185;BME280;20454;48.100;11.776;2022-10-17T08:22:55;96262.38;;;14.91;87.27
34185;BME280;20454;48.100;11.776;2022-10-17T08:25:21;96261.38;;;15.04;86.75
34185;BME280;20454;48.100;11.776;2022-10-17T08:27:47;96260.19;;;15.22;85.00
34185;BME280;20454;48.100;11.776;2022-10-17T08:30:13;96256.88;;;15.37;82.96
34185;BME280;20454;48.100;11.776;2022-10-17T08:32:39;96253.53;;;15.52;81.50
34185;BME280;20454;48.100;11.776;2022-10-17T08:35:05;96241.78;;;15.67;79.33
34185;BME280;20454;48.100;11.776;2022-10-17T08:37:31;96248.28;;;15.88;78.83
34185;BME280;20454;48.100;11.776;2022-10-17T08:39:57;96246.53;;;16.04;77.72
34185;BME280;20454;48.100;11.776;2022-10-17T08:45:48;96255.34;;;16.52;70.97
34185;BME280;20454;48.100;11.776;2022-10-17T08:48:19;96246.44;;;16.70;70.75
34185;BME280;20454;48.100;11.776;2022-10-17T08:54:13;96244.06;;;17.13;70.53
34185;BME280;20454;48.100;11.776;2022-10-17T10:17:59;96217.34;;;27.12;40.15
34185;BME280;20454;48.100;11.776;2022-10-17T10:20:34;96215.72;;;27.21;40.72
34185;BME280;20454;48.100;11.776;2022-10-17T10:23:15;96218.16;;;27.30;39.48
34185;BME280;20454;48.100;11.776;2022-10-17T10:26:01;96218.09;;;27.47;39.04
34185;BME280;20454;48.100;11.776;2022-10-17T10:28:34;96221.75;;;27.58;39.26
34185;BME280;20454;48.100;11.776;2022-10-17T10:31:05;96223.84;;;27.40;38.37
34185;BME280;20454;48.100;11.776;2022-10-17T10:33:35;96216.94;;;27.31;39.56
34185;BME280;20454;48.100;11.776;2022-10-17T10:36:05;96220.19;;;27.29;40.64
34185;BME280;20454;48.100;11.776;2022-10-17T10:38:33;96219.41;;;27.25;41.07
34185;BME280;20454;48.100;11.776;2022-10-17T10:41:07;96214.50;;;27.15;38.92
34185;BME280;20454;48.100;11.776;2022-10-17T10:43:44;96233.72;;;26.97;38.80
34185;BME280;20454;48.100;11.776;2022-10-17T10:46:26;96226.38;;;26.89;40.33
34185;BME280;20454;48.100;11.776;2022-10-17T10:48:58;96234.97;;;26.69;40.17
34185;BME280;20454;48.100;11.776;2022-10-17T10:51:46;96230.88;;;26.56;41.41
34185;BME280;20454;48.100;11.776;2022-10-17T10:54:28;96234.91;;;26.44;41.53
34185;BME280;20454;48.100;11.776;2022-10-17T10:56:59;96231.63;;;26.28;42.18
34185;BME280;20454;48.100;11.776;2022-10-17T11:07:57;96234.41;;;25.22;44.83
34185;BME280;20454;48.100;11.776;2022-10-17T11:13:48;96235.28;;;24.68;47.48
34185;BME280;20454;48.100;11.776;2022-10-17T11:16:32;96228.13;;;24.41;44.16
34185;BME280;20454;48.100;11.776;2022-10-17T11:19:22;96226.47;;;24.40;45.62
34185;BME280;20454;48.100;11.776;2022-10-17T11:22:18;96226.19;;;24.09;45.47
34185;BME280;20454;48.100;11.776;2022-10-17T11:24:55;96237.53;;;23.72;46.71
34185;BME280;20454;48.100;11.776;2022-10-17T11:27:23;96235.09;;;23.38;47.74
34185;BME280;20454;48.100;11.776;2022-10-17T11:29:49;96247.88;;;22.99;46.96
34185;BME280;20454;48.100;11.776;2022-10-17T11:32:47;96228.38;;;22.68;48.55
34185;BME280;20454;48.100;11.776;2022-10-17T11:35:25;96238.63;;;22.50;48.66
34185;BME280;20454;48.100;11.776;2022-10-17T11:40:52;96238.19;;;22.48;50.17
34185;BME280;20454;48.100;11.776;2022-10-17T11:43:28;96237.47;;;22.54;50.16
34185;BME280;20454;48.100;11.776;2022-10-17T11:46:01;96221.81;;;22.64;50.62
34185;BME280;20454;48.100;11.776;2022-10-17T11:48:41;96226.19;;;22.84;48.93
34185;BME280;20454;48.100;11.776;2022-10-17T11:51:12;96228.78;;;22.96;48.21
34185;BME280;20454;48.100;11.776;2022-10-17T11:53:56;96231.06;;;23.13;46.80
34185;BME280;20454;48.100;11.776;2022-10-17T12:02:03;96223.94;;;24.28;46.57
34185;BME280;20454;48.100;11.776;2022-10-17T12:07:34;96228.31;;;25.20;44.55
34185;BME280;20454;48.100;11.776;2022-10-17T12:10:34;96226.41;;;25.34;42.36
34185;BME280;20454;48.100;11.776;2022-10-17T12:15:55;96214.47;;;25.18;42.87
34185;BME280;20454;48.100;11.776;2022-10-17T12:18:24;96228.28;;;25.13;42.89
34185;BME280;20454;48.100;11.776;2022-10-17T12:20:57;96213.06;;;24.91;41.19
34185;BME280;20454;48.100;11.776;2022-10-17T12:23:29;96212.72;;;24.49;41.75
34185;BME280;20454;48.100;11.776;2022-10-17T12:25:59;96221.56;;;24.34;42.81
34185;BME280;20454;48.100;11.776;2022-10-17T12:28:44;96215.25;;;24.14;43.22
34185;BME280;20454;48.100;11.776;2022-10-17T12:34:00;96214.97;;;23.86;44.51
34185;BME280;20454;48.100;11.776;2022-10-17T12:46:57;96204.88;;;23.23;47.16
34185;BME280;20454;48.100;11.776;2022-10-17T12:49:46;96207.91;;;23.11;47.73
34185;BME280;20454;48.100;11.776;2022-10-17T12:57:52;96208.09;;;22.69;48.41
34185;BME280;20454;48.100;11.776;2022-10-17T13:00:40;96210.47;;;22.64;47.73
34185;BME280;20454;48.100;11.776;2022-10-17T13:03:43;96208.78;;;22.59;48.86
34185;BME280;20454;48.100;11.776;2022-10-17T13:06:21;96209.53;;;22.56;48.95
34185;BME280;20454;48.100;11.776;2022-10-17T13:09:02;96201.47;;;22.58;48.55
34185;BME280;20454;48.100;11.776;2022-10-17T13:11:31;96203.69;;;22.72;48.83
34185;BME280;20454;48.100;11.776;2022-10-17T13:14:00;96202.22;;;22.81;48.85
34185;BME280;20454;48.100;11.776;2022-10-17T13:16:38;96206.97;;;23.03;46.25
34185;BME280;20454;48.100;11.776;2022-10-17T13:19:20;96195.91;;;23.21;46.20
34185;BME280;20454;48.100;11.776;2022-10-17T13:21:53;96203.06;;;23.41;44.64
34185;BME280;20454;48.100;11.776;2022-10-17T13:24:34;96208.66;;;23.67;44.29
34185;BME280;20454;48.100;11.776;2022-10-17T13:27:00;96205.22;;;23.87;42.24
34185;BME280;20454;48.100;11.776;2022-10-17T13:29:27;96201.44;;;24.13;42.37
34185;BME280;20454;48.100;11.776;2022-10-17T13:32:04;96200.50;;;24.42;41.52
34185;BME280;20454;48.100;11.776;2022-10-17T13:34:32;96207.19;;;24.63;41.78
34185;BME280;20454;48.100;11.776;2022-10-17T13:37:05;96197.03;;;24.66;41.79
34185;BME280;20454;48.100;11.776;2022-10-17T13:39:43;96189.06;;;24.89;42.14
34185;BME280;20454;48.100;11.776;2022-10-17T13:42:29;96203.50;;;25.20;42.44
34185;BME280;20454;48.100;11.776;2022-10-17T13:44:56;96199.97;;;25.44;43.30
34185;BME280;20454;48.100;11.776;2022-10-17T13:47:28;96203.25;;;25.50;41.09
34185;BME280;20454;48.100;11.776;2022-10-17T13:49:55;96199.25;;;25.65;41.71
34185;BME280;20454;48.100;11.776;2022-10-17T13:52:26;96191.50;;;25.65;40.05
34185;BME280;20454;48.100;11.776;2022-10-17T13:54:53;96189.47;;;25.66;40.54
34185;BME280;20454;48.100;11.776;2022-10-17T13:57:29;96198.38;;;25.50;40.13
34185;BME280;20454;48.100;11.776;2022-10-17T14:00:40;96197.88;;;25.27;40.74
34185;BME280;20454;48.100;11.776;2022-10-17T14:02:47;96197.66;;;24.96;42.53
34185;BME280;20454;48.100;11.776;2022-10-17T14:05:17;96195.00;;;24.63;42.73
34185;BME280;20454;48.100;11.776;2022-10-17T14:07:58;96184.09;;;24.28;43.31
34185;BME280;20454;48.100;11.776;2022-10-17T14:10:36;96187.47;;;23.97;44.10
34185;BME280;20454;48.100;11.776;2022-10-17T14:13:05;96203.88;;;23.78;44.37
34185;BME280;20454;48.100;11.776;2022-10-17T14:15:36;96194.69;;;23.55;45.56
34185;BME280;20454;48.100;11.776;2022-10-17T14:18:07;96195.66;;;23.33;46.37
34185;BME280;20454;48.100;11.776;2022-10-17T14:20:35;96203.09;;;23.15;47.09
34185;BME280;20454;48.100;11.776;2022-10-17T14:23:01;96202.84;;;22.97;47.63
34185;BME280;20454;48.100;11.776;2022-10-17T14:25:34;96205.44;;;22.80;48.60
34185;BME280;20454;48.100;11.776;2022-10-17T14:28:11;96196.72;;;22.66;49.41
34185;BME280;20454;48.100;11.776;2022-10-17T14:30:42;96203.00;;;22.52;49.23
34185;BME280;20454;48.100;11.776;2022-10-17T14:33:26;96214.97;;;22.42;49.83
34185;BME280;20454;48.100;11.776;2022-10-17T14:35:56;96210.25;;;22.27;50.43
34185;BME280;20454;48.100;11.776;2022-10-17T14:38:23;96209.25;;;22.16;50.79
34185;BME280;20454;48.100;11.776;2022-10-17T14:40:59;96211.13;;;22.09;51.32
34185;BME280;20454;48.100;11.776;2022-10-17T14:43:29;96208.63;;;22.04;49.86
34185;BME280;20454;48.100;11.776;2022-10-17T14:45:57;96219.09;;;22.00;49.97
34185;BME280;20454;48.100;11.776;2022-10-17T14:48:24;96207.16;;;21.91;50.69
34185;BME280;20454;48.100;11.776;2022-10-17T14:53:33;96214.53;;;21.73;50.85
34185;BME280;20454;48.100;11.776;2022-10-17T14:56:03;96222.66;;;21.74;51.84
34185;BME280;20454;48.100;11.776;2022-10-17T14:58:32;96224.78;;;21.62;53.10
34185;BME280;20454;48.100;11.776;2022-10-17T15:01:00;96225.78;;;21.50;53.37
34185;BME280;20454;48.100;11.776;2022-10-17T15:03:26;96225.94;;;21.38;54.00
34185;BME280;20454;48.100;11.776;2022-10-17T15:05:53;96220.53;;;21.30;53.86
34185;BME280;20454;48.100;11.776;2022-10-17T15:08:22;96223.66;;;21.25;54.33
34185;BME280;20454;48.100;11.776;2022-10-17T15:10:50;96222.16;;;21.12;54.99
34185;BME280;20454;48.100;11.776;2022-10-17T15:13:16;96226.03;;;21.04;55.69
34185;BME280;20454;48.100;11.776;2022-10-17T15:15:42;96221.31;;;20.92;56.38
34185;BME280;20454;48.100;11.776;2022-10-17T15:18:11;96227.53;;;20.82;57.31
34185;BME280;20454;48.100;11.776;2022-10-17T15:20:37;96220.44;;;20.73;57.19
34185;BME280;20454;48.100;11.776;2022-10-17T15:23:03;96229.59;;;20.66;56.44
34185;BME280;20454;48.100;11.776;2022-10-17T15:25:30;96228.66;;;20.62;56.50
34185;BME280;20454;48.100;11.776;2022-10-17T15:27:57;96241.72;;;20.67;56.65
34185;BME280;20454;48.100;11.776;2022-10-17T15:30:30;96236.06;;;20.67;57.09
34185;BME280;20454;48.100;11.776;2022-10-17T15:32:57;96238.00;;;20.63;57.33
34185;BME280;20454;48.100;11.776;2022-10-17T15:35:24;96244.41;;;20.60;57.32
34185;BME280;20454;48.100;11.776;2022-10-17T15:37:51;96241.75;;;20.52;57.97
34185;BME280;20454;48.100;11.776;2022-10-17T15:40:24;96243.84;;;20.39;58.72
34185;BME280;20454;48.100;11.776;2022-10-17T15:42:52;96245.06;;;20.23;59.71
34185;BME280;20454;48.100;11.776;2022-10-17T15:45:19;96251.63;;;20.11;60.85
34185;BME280;20454;48.100;11.776;2022-10-17T15:48:05;96252.97;;;19.86;62.80
34185;BME280;20454;48.100;11.776;2022-10-17T15:50:31;96256.84;;;19.66;64.05
34185;BME280;20454;48.100;11.776;2022-10-17T15:52:58;96259.19;;;19.49;65.92
34185;BME280;20454;48.100;11.776;2022-10-17T15:55:24;96261.84;;;19.30;67.41
34185;BME280;20454;48.100;11.776;2022-10-17T15:57:50;96258.81;;;19.11;68.74
34185;BME280;20454;48.100;11.776;2022-10-17T16:00:18;96275.69;;;18.95;70.03
34185;BME280;20454;48.100;11.776;2022-10-17T16:02:45;96269.13;;;18.79;71.32
34185;BME280;20454;48.100;11.776;2022-10-17T16:05:21;96270.59;;;18.61;72.80
34185;BME280;20454;48.100;11.776;2022-10-17T16:07:52;96281.75;;;18.46;73.59
34185;BME280;20454;48.100;11.776;2022-10-17T16:10:19;96278.00;;;18.30;75.10
34185;BME280;20454;48.100;11.776;2022-10-17T16:12:45;96285.47;;;18.14;76.48
34185;BME280;20454;48.100;11.776;2022-10-17T16:15:26;96288.19;;;17.98;77.31
34185;BME280;20454;48.100;11.776;2022-10-17T16:17:54;96298.72;;;17.89;78.31
34185;BME280;20454;48.100;11.776;2022-10-17T16:20:22;96305.47;;;17.76;79.69
34185;BME280;20454;48.100;11.776;2022-10-17T16:22:49;96304.16;;;17.62;80.60
34185;BME280;20454;48.100;11.776;2022-10-17T16:25:25;96298.63;;;17.53;82.01
34185;BME280;20454;48.100;11.776;2022-10-17T16:27:58;96306.69;;;17.43;82.86
34185;BME280;20454;48.100;11.776;2022-10-17T16:30:27;96314.34;;;17.34;83.65
34185;BME280;20454;48.100;11.776;2022-10-17T16:32:54;96309.13;;;17.24;84.42
34185;BME280;20454;48.100;11.776;2022-10-17T16:35:27;96314.72;;;17.12;84.80
34185;BME280;20454;48.100;11.776;2022-10-17T16:37:54;96315.13;;;17.02;85.19
34185;BME280;20454;48.100;11.776;2022-10-17T16:40:21;96315.88;;;16.90;85.79
34185;BME280;20454;48.100;11.776;2022-10-17T16:42:47;96313.00;;;16.78;86.72
34185;BME280;20454;48.100;11.776;2022-10-17T16:45:21;96319.03;;;16.68;87.07
34185;BME280;20454;48.100;11.776;2022-10-17T16:47:48;96325.53;;;16.60;88.27
34185;BME280;20454;48.100;11.776;2022-10-17T16:50:14;96322.91;;;16.55;89.05